Time;durP1;ratioP1;P1;durP2;ratioP2;P2;SDS_P1;SDS_P2;PMS_P1;PMS_P2;Temp;Humidity;BMP_temperature;BMP_pressure;BME280_temperature;BME280_humidity;BME280_pressure;Samples;Min_cycle;Max_cycle;Signal;HPM_P1;HPM_P2
2022/01/11 00:00:39;;;;;;;25.93;12.20;;;0.30;99.90;;;;;;5050394;28;20444;-77
2022/01/11 00:03:06;;;;;;;27.03;13.03;;;0.30;99.90;;;;;;5050597;28;20453;-77
2022/01/11 00:05:39;;;;;;;25.13;11.70;;;0.40;99.90;;;;;;5051248;28;20479;-76
2022/01/11 00:08:09;;;;;;;24.50;11.43;;;0.20;99.90;;;;;;5050002;28;20541;-77
2022/01/11 00:10:47;;;;;;;27.30;12.80;;;0.20;99.90;;;;;;5049900;28;20903;-77
2022/01/11 00:13:14;;;;;;;25.33;11.43;;;0.30;99.90;;;;;;5049860;28;20464;-77
2022/01/11 00:15:40;;;;;;;27.20;12.57;;;0.20;99.90;;;;;;5050097;28;20444;-77
2022/01/11 00:18:07;;;;;;;30.87;12.53;;;0.30;99.90;;;;;;5050124;28;20468;-77
2022/01/11 00:20:37;;;;;;;29.33;13.03;;;0.20;99.90;;;;;;5050206;28;20456;-77
2022/01/11 00:25:50;;;;;;;34.00;14.17;;;0.20;99.90;;;;;;5049833;28;20581;-77
2022/01/11 00:28:18;;;;;;;30.63;14.70;;;0.20;99.90;;;;;;5049270;28;20527;-77
2022/01/11 00:30:47;;;;;;;31.47;13.57;;;0.10;99.90;;;;;;5050065;28;20456;-77
2022/01/11 00:33:18;;;;;;;33.00;13.60;;;0.10;99.90;;;;;;5049811;28;20460;-77
2022/01/11 00:35:56;;;;;;;27.37;13.30;;;0.00;99.90;;;;;;5049999;28;21005;-77
2022/01/11 00:38:24;;;;;;;28.87;12.37;;;0.00;99.90;;;;;;5049542;28;20460;-77
2022/01/11 00:40:53;;;;;;;28.70;12.63;;;0.00;99.90;;;;;;5049734;28;20537;-77
2022/01/11 00:43:21;;;;;;;29.37;12.90;;;0.00;99.90;;;;;;5049869;28;20448;-77
2022/01/11 00:45:49;;;;;;;30.50;12.50;;;-0.10;99.90;;;;;;5049159;28;20828;-77
2022/01/11 00:48:15;;;;;;;29.53;13.53;;;-0.10;99.90;;;;;;5049549;28;20468;-77
2022/01/11 00:50:42;;;;;;;31.87;13.97;;;-0.10;99.90;;;;;;5049724;28;20452;-77
2022/01/11 00:53:11;;;;;;;33.00;13.30;;;-0.10;99.90;;;;;;5049740;28;20960;-77
2022/01/11 00:55:39;;;;;;;34.70;13.80;;;-0.20;99.90;;;;;;5049394;28;20454;-77
2022/01/11 00:58:06;;;;;;;36.90;14.00;;;-0.20;99.90;;;;;;5049585;28;20556;-77
2022/01/11 01:00:38;;;;;;;36.43;14.40;;;-0.10;99.90;;;;;;5048983;28;21041;-77
2022/01/11 01:03:05;;;;;;;27.97;12.67;;;-0.20;99.90;;;;;;5049461;28;20510;-77
2022/01/11 01:05:32;;;;;;;30.90;13.60;;;-0.20;99.90;;;;;;5048983;28;20491;-77
2022/01/11 01:07:59;;;;;;;30.00;12.60;;;-0.20;99.90;;;;;;5049383;28;20472;-77
2022/01/11 01:10:35;;;;;;;32.43;13.30;;;-0.20;99.90;;;;;;5049351;28;20539;-77
2022/01/11 01:13:03;;;;;;;33.87;12.73;;;-0.20;99.90;;;;;;5049712;28;20947;-77
2022/01/11 01:15:30;;;;;;;29.80;12.33;;;-0.20;99.90;;;;;;5048899;28;20856;-77
2022/01/11 01:17:57;;;;;;;33.00;13.63;;;-0.20;99.90;;;;;;5049021;28;20488;-77
2022/01/11 01:20:24;;;;;;;31.33;12.67;;;-0.20;99.90;;;;;;5049245;28;20483;-77
2022/01/11 01:22:50;;;;;;;34.03;13.27;;;-0.10;99.90;;;;;;5049568;28;20460;-77
2022/01/11 01:25:20;;;;;;;30.77;12.60;;;-0.10;99.90;;;;;;5049025;28;20480;-77
2022/01/11 01:27:48;;;;;;;25.17;12.57;;;-0.10;99.90;;;;;;5049000;28;20589;-77
2022/01/11 01:30:16;;;;;;;25.23;12.77;;;-0.10;99.90;;;;;;5048932;28;20510;-77
2022/01/11 01:32:43;;;;;;;26.03;12.27;;;-0.10;99.90;;;;;;5049260;28;20629;-77
2022/01/11 01:35:11;;;;;;;31.83;13.70;;;0.00;99.90;;;;;;5048809;28;20873;-77
2022/01/11 01:37:38;;;;;;;29.80;13.67;;;0.00;99.90;;;;;;5049157;28;20511;-77
2022/01/11 01:40:06;;;;;;;30.07;13.27;;;0.00;99.90;;;;;;5049288;28;20497;-77
2022/01/11 01:42:33;;;;;;;28.17;13.77;;;0.00;99.90;;;;;;5049193;28;20948;-77
2022/01/11 01:45:03;;;;;;;31.43;13.23;;;0.00;99.90;;;;;;5048302;28;20555;-77
2022/01/11 01:47:30;;;;;;;29.93;13.00;;;0.00;99.90;;;;;;5049440;28;20491;-77
2022/01/11 01:49:57;;;;;;;26.80;12.40;;;0.00;99.90;;;;;;5038951;28;20464;-77
2022/01/11 01:52:25;;;;;;;29.03;12.63;;;0.00;99.90;;;;;;5048669;28;20464;-77
2022/01/11 01:54:53;;;;;;;28.03;12.77;;;0.00;99.90;;;;;;5049547;28;20534;-77
2022/01/11 01:57:20;;;;;;;31.00;12.77;;;0.00;99.90;;;;;;5048918;28;20530;-77
2022/01/11 01:59:47;;;;;;;32.43;13.60;;;0.00;99.90;;;;;;5049519;28;20461;-77
2022/01/11 02:02:15;;;;;;;34.03;14.23;;;0.00;99.90;;;;;;5049765;28;20456;-77
2022/01/11 02:04:42;;;;;;;27.03;12.10;;;0.00;99.90;;;;;;5049474;28;20460;-77
2022/01/11 02:07:09;;;;;;;26.70;11.90;;;0.00;99.90;;;;;;5048572;28;21062;-76
2022/01/11 02:09:36;;;;;;;36.83;12.43;;;0.00;99.90;;;;;;5049520;28;20511;-77
2022/01/11 02:12:03;;;;;;;35.77;12.57;;;0.00;99.90;;;;;;5052418;28;20455;-77
2022/01/11 02:14:30;;;;;;;25.37;11.20;;;0.00;99.90;;;;;;5052425;28;21005;-77
2022/01/11 02:17:00;;;;;;;32.17;12.53;;;0.00;99.90;;;;;;5052349;28;21010;-78
2022/01/11 02:19:28;;;;;;;29.17;11.90;;;0.10;99.90;;;;;;5044003;28;20464;-77
2022/01/11 02:21:56;;;;;;;27.70;11.73;;;0.10;99.90;;;;;;5052721;28;20440;-77
2022/01/11 02:24:23;;;;;;;27.17;11.97;;;0.10;99.90;;;;;;5052097;28;20975;-77
2022/01/11 02:26:50;;;;;;;31.43;12.03;;;0.20;99.90;;;;;;5051989;28;20487;-78
2022/01/11 02:29:18;;;;;;;24.13;11.73;;;0.10;99.90;;;;;;5052254;28;20453;-78
2022/01/11 02:31:44;;;;;;;25.80;12.17;;;0.30;99.90;;;;;;5052585;28;20464;-78
2022/01/11 02:34:11;;;;;;;25.30;12.33;;;0.20;99.90;;;;;;5052178;28;20453;-77
2022/01/11 02:36:38;;;;;;;24.70;12.03;;;0.10;99.90;;;;;;5051885;28;20468;-78
2022/01/11 02:39:06;;;;;;;27.43;12.13;;;0.10;99.90;;;;;;5052280;28;20456;-77
2022/01/11 02:41:33;;;;;;;27.20;12.33;;;0.10;99.90;;;;;;5051933;28;20457;-77
2022/01/11 02:44:00;;;;;;;28.47;12.30;;;0.10;99.90;;;;;;5051805;28;20479;-78
2022/01/11 02:46:28;;;;;;;24.30;11.40;;;0.10;99.90;;;;;;5051921;28;21018;-78
2022/01/11 02:48:56;;;;;;;24.07;12.10;;;0.10;99.90;;;;;;5052199;28;20483;-77
2022/01/11 02:51:24;;;;;;;28.30;12.10;;;0.10;99.90;;;;;;5050294;28;20468;-78
2022/01/11 02:53:52;;;;;;;23.90;11.70;;;0.10;99.90;;;;;;5053978;28;20463;-78
2022/01/11 02:56:21;;;;;;;26.93;12.67;;;0.20;99.90;;;;;;5052005;28;20996;-77
2022/01/11 02:58:49;;;;;;;25.47;11.37;;;0.10;99.90;;;;;;5053221;28;20452;-78
2022/01/11 03:01:16;;;;;;;23.47;11.07;;;0.10;99.90;;;;;;5051298;28;20507;-78
2022/01/11 03:03:43;;;;;;;24.63;11.53;;;0.20;99.90;;;;;;5051318;28;20453;-77
2022/01/11 03:06:09;;;;;;;21.83;10.40;;;0.10;99.90;;;;;;5051161;28;20565;-77
2022/01/11 03:08:39;;;;;;;19.37;10.20;;;0.10;99.90;;;;;;5052253;28;20448;-77
2022/01/11 03:11:07;;;;;;;21.30;9.90;;;0.10;99.90;;;;;;5051313;28;20449;-77
2022/01/11 03:13:36;;;;;;;20.10;10.97;;;0.10;99.90;;;;;;5051646;28;20952;-77
2022/01/11 03:16:03;;;;;;;25.43;11.67;;;0.10;99.90;;;;;;5052205;28;20481;-77
2022/01/11 03:18:30;;;;;;;21.30;10.67;;;0.10;99.90;;;;;;5052633;28;20510;-79
2022/01/11 03:20:57;;;;;;;21.80;10.63;;;0.30;99.90;;;;;;5052283;28;20483;-77
2022/01/11 03:23:24;;;;;;;22.00;11.37;;;0.10;99.90;;;;;;5052333;28;20461;-77
2022/01/11 03:25:52;;;;;;;19.90;9.93;;;0.10;99.90;;;;;;5050802;28;20995;-77
2022/01/11 03:28:19;;;;;;;21.33;10.90;;;0.20;99.90;;;;;;5097863;22;20548;-71
2022/01/11 03:30:48;;;;;;;20.10;10.50;;;0.20;99.90;;;;;;5090986;28;20439;-70
2022/01/11 03:33:15;;;;;;;24.53;11.40;;;0.20;99.90;;;;;;5108055;28;20446;-70
2022/01/11 03:35:42;;;;;;;23.37;11.60;;;0.20;99.90;;;;;;5111258;28;20442;-72
2022/01/11 03:38:11;;;;;;;25.20;11.73;;;0.20;99.90;;;;;;5094985;28;20471;-71
2022/01/11 03:40:39;;;;;;;21.30;9.87;;;0.20;99.90;;;;;;5090217;28;20974;-71
2022/01/11 03:43:06;;;;;;;17.77;10.00;;;0.20;99.90;;;;;;5091137;28;20435;-71
2022/01/11 03:45:32;;;;;;;21.50;11.10;;;0.30;99.90;;;;;;5088915;28;20472;-71
2022/01/11 03:48:02;;;;;;;22.90;10.93;;;0.30;99.90;;;;;;5090857;28;20470;-71
2022/01/11 03:50:30;;;;;;;20.03;9.73;;;0.30;99.90;;;;;;5050841;28;20855;-71
2022/01/11 03:53:05;;;;;;;16.10;9.93;;;0.30;99.90;;;;;;5059754;28;20447;-71
2022/01/11 03:55:45;;;;;;;20.23;10.70;;;0.30;99.90;;;;;;5076451;28;21019;-71
2022/01/11 03:58:13;;;;;;;21.20;10.67;;;0.40;99.90;;;;;;5077151;28;20478;-71
2022/01/11 04:00:40;;;;;;;12.53;8.00;;;0.40;99.90;;;;;;5089923;28;20455;-71
2022/01/11 04:03:08;;;;;;;17.60;9.20;;;0.40;99.90;;;;;;5087100;28;20971;-71
2022/01/11 04:05:35;;;;;;;20.97;9.17;;;0.40;99.90;;;;;;5070108;28;20456;-72
2022/01/11 04:08:02;;;;;;;17.87;9.30;;;0.40;99.90;;;;;;5071602;28;20479;-72
2022/01/11 04:10:29;;;;;;;18.80;8.87;;;0.40;99.90;;;;;;5086173;28;20486;-71
2022/01/11 04:12:56;;;;;;;15.93;9.07;;;0.40;99.90;;;;;;5090186;28;20451;-71
2022/01/11 04:15:22;;;;;;;18.20;9.33;;;0.40;99.90;;;;;;5089771;28;20508;-72
2022/01/11 04:17:49;;;;;;;19.70;10.30;;;0.40;99.90;;;;;;5089633;28;21166;-71
2022/01/11 04:20:19;;;;;;;22.70;10.00;;;0.40;99.90;;;;;;5090300;28;20447;-71
2022/01/11 04:22:47;;;;;;;16.97;9.07;;;0.40;99.90;;;;;;5078248;28;20450;-71
2022/01/11 04:25:13;;;;;;;17.80;9.50;;;0.40;99.90;;;;;;5076101;28;21092;-72
2022/01/11 04:27:40;;;;;;;18.50;9.27;;;0.40;99.90;;;;;;5089128;28;20483;-72
2022/01/11 04:30:07;;;;;;;18.03;9.57;;;0.60;99.90;;;;;;5090589;28;20446;-71
2022/01/11 04:32:34;;;;;;;21.50;11.40;;;0.50;99.90;;;;;;5088408;28;20500;-71
2022/01/11 04:35:01;;;;;;;16.47;9.50;;;0.50;99.90;;;;;;5086783;28;20455;-71
2022/01/11 04:37:29;;;;;;;18.80;9.43;;;0.50;99.90;;;;;;5069690;28;20502;-71
2022/01/11 04:39:55;;;;;;;15.27;8.77;;;0.50;99.90;;;;;;5070185;28;20451;-71
2022/01/11 04:42:22;;;;;;;18.10;9.30;;;0.50;99.90;;;;;;5082972;28;20721;-71
2022/01/11 04:44:49;;;;;;;21.20;9.90;;;0.50;99.90;;;;;;5073260;28;20879;-73
2022/01/11 04:47:16;;;;;;;19.60;9.83;;;0.50;99.90;;;;;;5069472;28;20511;-71
2022/01/11 04:49:43;;;;;;;16.03;9.53;;;0.50;99.90;;;;;;5079966;28;20458;-71
2022/01/11 04:52:10;;;;;;;17.87;10.03;;;0.50;99.90;;;;;;5083551;28;20543;-70
2022/01/11 04:54:40;;;;;;;21.50;10.07;;;0.50;99.90;;;;;;5069687;28;20455;-71
2022/01/11 04:57:07;;;;;;;20.07;9.40;;;0.50;99.90;;;;;;5069265;28;20463;-71
2022/01/11 04:59:34;;;;;;;28.67;9.83;;;0.50;99.90;;;;;;5087519;28;20507;-70
2022/01/11 05:02:00;;;;;;;21.53;10.33;;;0.50;99.90;;;;;;5088075;28;20482;-71
2022/01/11 05:04:27;;;;;;;18.77;9.60;;;0.50;99.90;;;;;;5089589;28;20492;-72
2022/01/11 05:06:55;;;;;;;22.43;10.87;;;0.50;99.90;;;;;;5088913;28;20544;-72
2022/01/11 05:09:22;;;;;;;22.80;8.90;;;0.50;99.90;;;;;;5089264;28;20957;-72
2022/01/11 05:11:50;;;;;;;18.87;9.60;;;0.50;99.90;;;;;;5089142;28;20496;-71
2022/01/11 05:14:16;;;;;;;16.13;8.90;;;0.50;99.90;;;;;;5090153;28;20888;-71
2022/01/11 05:16:43;;;;;;;19.30;10.37;;;0.60;99.90;;;;;;5077453;28;20902;-72
2022/01/11 05:19:12;;;;;;;17.00;9.93;;;0.60;99.90;;;;;;5082677;28;20508;-71
2022/01/11 05:21:39;;;;;;;14.60;9.37;;;0.50;99.90;;;;;;5075836;28;20525;-71
2022/01/11 05:24:07;;;;;;;25.20;10.97;;;0.50;99.90;;;;;;5074553;28;20474;-71
2022/01/11 05:26:34;;;;;;;19.93;9.87;;;0.50;99.90;;;;;;5088783;28;20491;-72
2022/01/11 05:29:02;;;;;;;18.47;9.50;;;0.50;99.90;;;;;;5089347;28;20575;-72
2022/01/11 05:31:29;;;;;;;19.70;9.53;;;0.50;99.90;;;;;;5089528;28;20477;-71
2022/01/11 05:33:56;;;;;;;25.37;10.30;;;0.60;99.90;;;;;;5049882;28;20444;-71
2022/01/11 05:36:22;;;;;;;21.03;10.70;;;0.60;99.90;;;;;;5066404;28;20558;-71
2022/01/11 05:38:49;;;;;;;22.47;10.30;;;0.60;99.90;;;;;;5088169;28;20516;-72
2022/01/11 05:41:16;;;;;;;20.40;11.20;;;0.60;99.90;;;;;;5086859;28;20519;-71
2022/01/11 05:43:42;;;;;;;19.90;10.83;;;0.60;99.90;;;;;;5069574;28;20456;-71
2022/01/11 05:46:10;;;;;;;23.87;11.40;;;0.50;99.90;;;;;;5077544;28;21038;-71
2022/01/11 05:48:37;;;;;;;23.00;12.00;;;0.70;99.90;;;;;;5087975;28;20867;-72
2022/01/11 05:51:04;;;;;;;20.83;11.40;;;0.60;99.90;;;;;;5073385;28;20485;-72
2022/01/11 05:53:30;;;;;;;22.40;11.67;;;0.60;99.90;;;;;;5077048;28;20519;-72
2022/01/11 05:55:57;;;;;;;23.60;11.40;;;0.70;99.90;;;;;;5089439;28;20448;-73
2022/01/11 05:58:24;;;;;;;21.53;9.93;;;0.70;99.90;;;;;;5089034;28;20471;-73
2022/01/11 06:00:50;;;;;;;21.60;10.33;;;0.70;99.90;;;;;;5081371;28;20459;-72
2022/01/11 06:03:18;;;;;;;29.33;11.00;;;0.70;99.90;;;;;;5072707;28;20452;-73
2022/01/11 06:05:45;;;;;;;23.10;11.60;;;0.70;99.90;;;;;;5072544;28;20801;-72
2022/01/11 06:08:16;;;;;;;25.57;12.60;;;0.80;99.90;;;;;;5074611;28;20915;-72
2022/01/11 06:10:43;;;;;;;24.53;11.43;;;0.80;99.90;;;;;;5093522;28;20458;-72
2022/01/11 06:13:10;;;;;;;19.47;10.17;;;0.80;99.90;;;;;;5078654;28;20447;-72
2022/01/11 06:15:37;;;;;;;20.77;10.90;;;0.80;99.90;;;;;;5073333;28;20933;-72
2022/01/11 06:18:04;;;;;;;24.43;12.20;;;0.80;99.90;;;;;;5081451;28;20563;-72
2022/01/11 06:20:32;;;;;;;22.47;10.40;;;0.70;99.90;;;;;;5092512;28;20515;-72
2022/01/11 06:22:59;;;;;;;22.53;10.63;;;0.80;99.90;;;;;;5085084;28;20501;-72
2022/01/11 06:25:26;;;;;;;24.77;11.47;;;0.80;99.90;;;;;;5072505;28;20463;-72
2022/01/11 06:27:53;;;;;;;23.27;10.93;;;0.80;99.90;;;;;;5092155;28;20485;-72
2022/01/11 06:30:21;;;;;;;27.03;12.57;;;0.80;99.90;;;;;;5076751;28;20947;-72
2022/01/11 06:32:48;;;;;;;31.50;12.37;;;0.90;99.90;;;;;;5089002;28;20455;-73
2022/01/11 06:35:16;;;;;;;22.90;11.93;;;0.80;99.90;;;;;;5092452;28;20450;-73
2022/01/11 06:37:45;;;;;;;26.57;11.20;;;0.90;99.90;;;;;;5073789;28;20475;-73
2022/01/11 06:40:13;;;;;;;19.50;11.20;;;0.90;99.90;;;;;;5072448;28;20970;-74
2022/01/11 06:42:40;;;;;;;19.37;10.80;;;0.90;99.90;;;;;;5071773;28;20447;-73
2022/01/11 06:45:08;;;;;;;26.00;11.70;;;0.90;99.90;;;;;;5071444;28;20448;-73
2022/01/11 06:47:34;;;;;;;26.97;11.93;;;1.00;99.90;;;;;;5072031;28;20483;-73
2022/01/11 06:50:01;;;;;;;24.80;12.10;;;1.00;99.90;;;;;;5076622;28;20474;-72
2022/01/11 06:52:27;;;;;;;31.23;11.27;;;1.00;99.90;;;;;;5089848;28;20458;-73
2022/01/11 06:54:56;;;;;;;18.73;10.97;;;1.00;99.90;;;;;;5070256;28;20470;-72
2022/01/11 06:57:24;;;;;;;23.33;11.90;;;1.00;99.90;;;;;;5071398;28;20472;-72
2022/01/11 06:59:51;;;;;;;24.63;12.03;;;1.00;99.90;;;;;;5071872;28;20460;-74
2022/01/11 07:02:17;;;;;;;25.10;11.53;;;1.00;99.90;;;;;;5071191;28;21009;-71
2022/01/11 07:04:44;;;;;;;24.70;12.33;;;1.20;99.90;;;;;;5071015;28;20451;-73
2022/01/11 07:07:11;;;;;;;30.60;12.43;;;1.00;99.90;;;;;;5067748;28;20484;-71
2022/01/11 07:09:37;;;;;;;23.23;12.50;;;1.20;99.90;;;;;;5077323;28;20533;-72
2022/01/11 07:12:06;;;;;;;24.83;12.47;;;1.10;99.90;;;;;;5071106;28;20444;-72
2022/01/11 07:14:33;;;;;;;27.37;13.10;;;1.10;99.90;;;;;;5071151;28;20509;-72
2022/01/11 07:17:00;;;;;;;31.97;13.50;;;1.10;99.90;;;;;;5070393;28;20525;-70
2022/01/11 07:19:29;;;;;;;25.30;12.40;;;1.10;99.90;;;;;;5076033;28;20816;-70
2022/01/11 07:21:58;;;;;;;27.70;11.30;;;1.20;99.90;;;;;;5080718;28;20463;-70
2022/01/11 07:24:26;;;;;;;21.57;13.17;;;1.20;99.90;;;;;;5071229;28;20481;-70
2022/01/11 07:26:53;;;;;;;24.07;11.30;;;1.20;99.90;;;;;;5073949;28;20545;-70
2022/01/11 07:29:21;;;;;;;26.90;12.30;;;1.20;99.90;;;;;;5075764;28;20502;-70
2022/01/11 07:31:48;;;;;;;24.80;12.23;;;1.20;99.90;;;;;;5077983;28;20451;-70
2022/01/11 07:34:16;;;;;;;21.93;11.40;;;1.20;99.90;;;;;;5086149;28;20512;-70
2022/01/11 07:36:43;;;;;;;26.73;13.50;;;1.20;99.90;;;;;;5080557;28;20475;-70
2022/01/11 07:39:12;;;;;;;26.03;12.23;;;1.20;99.90;;;;;;5070605;28;20463;-71
2022/01/11 07:41:39;;;;;;;24.33;12.47;;;1.20;99.90;;;;;;5078455;28;20451;-70
2022/01/11 07:44:06;;;;;;;24.60;12.77;;;1.20;99.90;;;;;;5070371;28;20459;-70
2022/01/11 07:46:34;;;;;;;26.93;11.60;;;1.20;99.90;;;;;;5074453;28;20471;-70
2022/01/11 07:49:02;;;;;;;29.90;13.00;;;1.20;99.90;;;;;;5069486;28;20494;-69
2022/01/11 07:51:29;;;;;;;25.50;12.30;;;1.20;99.90;;;;;;5055805;28;20491;-71
2022/01/11 07:53:56;;;;;;;23.20;11.87;;;1.20;99.90;;;;;;5076367;28;20455;-70
2022/01/11 07:56:23;;;;;;;31.90;12.33;;;1.20;99.90;;;;;;5076308;28;20528;-70
2022/01/11 07:58:50;;;;;;;19.40;11.53;;;1.20;99.90;;;;;;5083963;28;20450;-71
2022/01/11 08:01:16;;;;;;;37.33;12.47;;;1.20;99.90;;;;;;5080856;28;20875;-71
2022/01/11 08:03:45;;;;;;;24.03;12.13;;;1.30;99.90;;;;;;5069723;28;20448;-69
2022/01/11 08:06:13;;;;;;;24.20;12.00;;;1.20;99.90;;;;;;5080912;28;20447;-69
2022/01/11 08:08:40;;;;;;;23.30;12.93;;;1.40;99.90;;;;;;5088169;28;20532;-69
2022/01/11 08:11:08;;;;;;;31.30;12.70;;;1.30;99.90;;;;;;5072985;28;20464;-70
2022/01/11 08:13:35;;;;;;;27.33;12.23;;;1.30;99.90;;;;;;5075201;28;20962;-70
2022/01/11 08:16:01;;;;;;;23.03;12.83;;;1.30;99.90;;;;;;5074702;28;20529;-70
2022/01/11 08:18:28;;;;;;;23.97;11.27;;;1.30;99.90;;;;;;5086976;28;20462;-71
2022/01/11 08:20:56;;;;;;;33.73;14.83;;;1.30;99.90;;;;;;5076339;28;20455;-70
2022/01/11 08:23:22;;;;;;;33.03;15.50;;;1.30;99.90;;;;;;5073567;28;20452;-71
2022/01/11 08:25:49;;;;;;;28.80;14.70;;;1.30;99.90;;;;;;5068203;28;20486;-70
2022/01/11 08:28:16;;;;;;;31.03;15.63;;;1.40;99.90;;;;;;5068417;28;20568;-71
2022/01/11 08:30:43;;;;;;;29.47;14.10;;;1.40;99.90;;;;;;5067938;28;21069;-70
2022/01/11 08:33:12;;;;;;;24.10;11.70;;;1.40;99.90;;;;;;5067953;28;20456;-70
2022/01/11 08:35:39;;;;;;;23.73;11.97;;;1.40;99.90;;;;;;5068527;28;20509;-71
2022/01/11 08:38:07;;;;;;;24.73;12.60;;;1.50;99.90;;;;;;5069799;28;20517;-71
2022/01/11 08:40:34;;;;;;;24.63;12.03;;;1.50;99.90;;;;;;5068174;28;20464;-70
2022/01/11 08:43:03;;;;;;;25.60;13.27;;;1.60;99.90;;;;;;5067731;28;20454;-70
2022/01/11 08:45:30;;;;;;;23.10;13.33;;;1.60;99.90;;;;;;5072123;28;21035;-71
2022/01/11 08:47:56;;;;;;;28.40;12.47;;;1.70;99.90;;;;;;5084524;28;20485;-70
2022/01/11 08:50:23;;;;;;;24.13;12.90;;;1.70;99.90;;;;;;5074753;28;20474;-71
2022/01/11 08:52:50;;;;;;;28.57;12.30;;;1.70;99.90;;;;;;5071240;28;20867;-71
2022/01/11 08:55:19;;;;;;;19.80;11.43;;;1.80;99.90;;;;;;5071275;28;21034;-71
2022/01/11 08:57:45;;;;;;;28.83;14.40;;;1.80;99.90;;;;;;5082896;28;20491;-71
2022/01/11 09:00:18;;;;;;;21.73;11.73;;;1.80;99.90;;;;;;5072716;28;20463;-71
2022/01/11 09:02:45;;;;;;;25.10;12.77;;;1.80;99.90;;;;;;5071245;28;20506;-71
2022/01/11 09:05:11;;;;;;;29.80;12.87;;;1.80;99.90;;;;;;5070551;28;20458;-71
2022/01/11 09:07:38;;;;;;;24.10;12.40;;;1.90;99.90;;;;;;5073796;28;20487;-70
2022/01/11 09:10:07;;;;;;;22.13;12.17;;;1.90;99.90;;;;;;5069397;28;20455;-71
2022/01/11 09:12:35;;;;;;;31.77;13.50;;;1.90;99.90;;;;;;5068301;28;20489;-70
2022/01/11 09:15:03;;;;;;;34.50;16.63;;;1.90;99.90;;;;;;5086636;28;20781;-70
2022/01/11 09:17:30;;;;;;;25.07;12.90;;;2.10;99.90;;;;;;5075890;28;20214;-70
2022/01/11 09:19:56;;;;;;;23.30;12.47;;;2.10;99.90;;;;;;5079792;28;20473;-70
2022/01/11 09:22:23;;;;;;;24.63;11.70;;;2.10;99.90;;;;;;5080498;28;20456;-70
2022/01/11 09:24:50;;;;;;;22.47;12.30;;;2.20;99.90;;;;;;5077910;28;20876;-70
2022/01/11 09:27:17;;;;;;;23.13;10.50;;;2.30;99.90;;;;;;5080979;28;20479;-70
2022/01/11 09:29:45;;;;;;;20.87;11.10;;;2.30;99.90;;;;;;5093130;28;20511;-70
2022/01/11 09:32:13;;;;;;;23.30;11.97;;;2.30;99.90;;;;;;5082976;28;20562;-70
2022/01/11 09:34:40;;;;;;;25.30;12.60;;;2.30;99.90;;;;;;5078270;28;20943;-70
2022/01/11 09:37:07;;;;;;;27.03;12.10;;;2.40;99.90;;;;;;5072423;28;20479;-70
2022/01/11 09:39:35;;;;;;;23.73;11.70;;;2.40;99.90;;;;;;5073010;28;20487;-70
2022/01/11 09:42:02;;;;;;;21.27;12.13;;;2.40;99.90;;;;;;5074486;28;20450;-70
2022/01/11 09:44:29;;;;;;;23.10;11.50;;;2.40;99.90;;;;;;5088532;28;20551;-70
2022/01/11 09:46:57;;;;;;;23.13;12.33;;;2.40;99.90;;;;;;5087674;28;21212;-70
2022/01/11 09:49:24;;;;;;;23.43;12.17;;;2.40;99.90;;;;;;5081328;28;20475;-70
2022/01/11 09:51:52;;;;;;;23.90;11.10;;;2.40;99.90;;;;;;5079382;28;20451;-69
2022/01/11 09:54:19;;;;;;;20.23;11.13;;;2.40;99.90;;;;;;5073625;28;20479;-70
2022/01/11 09:56:46;;;;;;;28.30;12.87;;;2.30;99.90;;;;;;5072563;28;20517;-70
2022/01/11 09:59:13;;;;;;;27.67;12.50;;;2.30;99.90;;;;;;5069669;22;20503;-88
2022/01/11 10:01:40;;;;;;;19.50;11.20;;;2.40;99.90;;;;;;5054515;28;20877;-88
2022/01/11 10:04:11;;;;;;;24.20;11.67;;;2.30;99.90;;;;;;5054715;28;20444;-88
2022/01/11 10:06:41;;;;;;;26.63;10.50;;;2.30;99.90;;;;;;5049325;28;20464;-87
2022/01/11 10:09:12;;;;;;;22.03;10.83;;;2.30;99.90;;;;;;5056788;28;20548;-87
2022/01/11 10:11:41;;;;;;;17.70;11.40;;;2.30;99.90;;;;;;5053070;28;20475;-87
2022/01/11 10:14:19;;;;;;;23.17;11.00;;;2.30;99.90;;;;;;5053164;28;20448;-88
2022/01/11 10:16:46;;;;;;;24.63;10.43;;;2.30;99.90;;;;;;5039550;28;20472;-88
2022/01/11 10:19:32;;;;;;;16.37;10.50;;;2.40;99.90;;;;;;5055617;28;20448;-87
2022/01/11 10:22:02;;;;;;;19.70;10.27;;;2.50;99.90;;;;;;5056308;28;20479;-87
2022/01/11 10:24:35;;;;;;;22.00;10.77;;;2.50;99.90;;;;;;5058181;28;20437;-87
2022/01/11 10:27:04;;;;;;;21.80;10.53;;;2.60;99.90;;;;;;5060603;28;20571;-88
2022/01/11 10:29:35;;;;;;;24.20;11.23;;;2.70;99.90;;;;;;5058284;28;20484;-89
2022/01/11 10:32:12;;;;;;;25.43;11.80;;;2.80;99.90;;;;;;5074093;28;20471;-90
2022/01/11 10:34:42;;;;;;;23.53;11.17;;;2.80;99.90;;;;;;5068873;28;20513;-88
2022/01/11 10:37:10;;;;;;;25.50;11.80;;;2.80;99.90;;;;;;5056302;28;20476;-87
2022/01/11 10:39:40;;;;;;;27.93;11.93;;;2.80;99.90;;;;;;5055589;28;20448;-87
2022/01/11 10:42:22;;;;;;;25.80;12.33;;;2.90;99.90;;;;;;5053847;28;20502;-87
2022/01/11 10:44:53;;;;;;;28.90;11.20;;;2.90;99.90;;;;;;5042797;28;20472;-86
2022/01/11 10:47:23;;;;;;;19.77;10.60;;;3.00;99.90;;;;;;5056085;28;20944;-86
2022/01/11 10:49:53;;;;;;;22.73;11.23;;;3.00;99.90;;;;;;5055979;28;20562;-86
2022/01/11 10:52:23;;;;;;;21.53;11.37;;;3.00;99.90;;;;;;5054749;28;20471;-88
2022/01/11 10:54:51;;;;;;;18.63;10.00;;;3.10;99.90;;;;;;5057310;28;20475;-86
2022/01/11 10:57:25;;;;;;;23.43;12.10;;;3.10;99.90;;;;;;5056529;28;20468;-87
2022/01/11 11:00:17;;;;;;;19.97;10.67;;;3.30;99.90;;;;;;5057060;28;20559;-88
2022/01/11 11:02:46;;;;;;;26.43;10.53;;;3.30;99.90;;;;;;5047963;28;20487;-86
2022/01/11 11:05:17;;;;;;;22.70;10.97;;;3.40;99.90;;;;;;5055202;28;20449;-88
2022/01/11 11:07:54;;;;;;;30.37;11.43;;;3.50;99.90;;;;;;5055612;28;20441;-87
2022/01/11 11:10:31;;;;;;;25.70;11.10;;;3.50;99.90;;;;;;5048772;28;20483;-86
2022/01/11 11:12:58;;;;;;;19.80;10.53;;;3.60;99.90;;;;;;5052251;28;20448;-87
2022/01/11 11:15:29;;;;;;;27.63;11.40;;;3.60;99.90;;;;;;5053777;28;20531;-86
2022/01/11 11:17:56;;;;;;;26.17;11.57;;;3.70;99.90;;;;;;5037125;28;20481;-86
2022/01/11 11:20:24;;;;;;;23.67;11.50;;;3.80;99.90;;;;;;5053999;28;20455;-87
2022/01/11 11:22:51;;;;;;;28.27;11.30;;;3.80;99.90;;;;;;5054249;28;20510;-88
2022/01/11 11:25:18;;;;;;;23.40;11.83;;;3.90;99.90;;;;;;5053504;28;20456;-87
2022/01/11 11:27:45;;;;;;;28.33;12.27;;;4.00;99.90;;;;;;5051185;28;20500;-87
2022/01/11 11:30:13;;;;;;;24.80;12.03;;;4.00;99.90;;;;;;5054578;28;20526;-91
2022/01/11 11:32:40;;;;;;;22.73;11.40;;;4.10;99.90;;;;;;5054320;28;20472;-89
2022/01/11 11:35:08;;;;;;;28.67;13.30;;;4.10;99.90;;;;;;5055551;28;20444;-89
2022/01/11 11:37:38;;;;;;;31.47;15.00;;;4.20;99.90;;;;;;5055432;28;20472;-90
2022/01/11 11:40:09;;;;;;;25.67;12.97;;;4.30;99.90;;;;;;5053288;28;20480;-89
2022/01/11 11:42:39;;;;;;;24.20;12.77;;;4.30;99.90;;;;;;5055139;28;20510;-90
2022/01/11 11:45:16;;;;;;;21.73;10.63;;;4.40;99.90;;;;;;5054821;28;20449;-89
2022/01/11 11:47:44;;;;;;;30.33;12.60;;;4.50;99.90;;;;;;5054740;28;20479;-88
2022/01/11 11:50:15;;;;;;;21.50;12.33;;;4.50;99.90;;;;;;5054416;28;20480;-89
2022/01/11 11:52:45;;;;;;;23.53;11.30;;;4.60;99.90;;;;;;5069735;28;20453;-89
2022/01/11 11:55:19;;;;;;;23.73;11.47;;;4.60;99.90;;;;;;5070237;28;20520;-89
2022/01/11 11:57:47;;;;;;;24.57;12.00;;;4.70;99.90;;;;;;5054011;28;20492;-86
2022/01/11 12:00:19;;;;;;;21.47;11.70;;;4.70;99.90;;;;;;5052618;28;20805;-88
2022/01/11 12:02:47;;;;;;;20.43;11.67;;;4.80;99.90;;;;;;5052153;28;20450;-88
2022/01/11 12:05:32;;;;;;;23.03;12.13;;;4.90;99.90;;;;;;5053141;28;20448;-85
2022/01/11 12:08:20;;;;;;;21.83;11.67;;;5.00;99.90;;;;;;5054069;28;20460;-84
2022/01/11 12:10:53;;;;;;;24.30;11.37;;;5.10;99.90;;;;;;5052479;28;20972;-88
2022/01/11 12:13:39;;;;;;;17.90;10.90;;;5.20;99.90;;;;;;5054126;28;20974;-87
2022/01/11 12:16:42;;;;;;;17.33;10.67;;;5.30;99.90;;;;;;5053954;28;20539;-88
2022/01/11 12:19:41;;;;;;;19.90;10.43;;;5.40;99.90;;;;;;5053744;28;20972;-86
2022/01/11 12:22:19;;;;;;;23.60;10.10;;;5.40;99.90;;;;;;5043012;28;20535;-87
2022/01/11 12:24:49;;;;;;;28.80;11.20;;;5.40;99.90;;;;;;5052404;28;20452;-89
2022/01/11 12:27:19;;;;;;;20.33;11.10;;;5.30;99.90;;;;;;5052486;28;20526;-86
2022/01/11 12:30:05;;;;;;;22.47;11.30;;;5.50;99.90;;;;;;5054845;28;20542;-88
2022/01/11 12:32:35;;;;;;;27.33;10.90;;;5.70;99.90;;;;;;5053293;28;20456;-88
2022/01/11 12:35:07;;;;;;;16.70;9.80;;;5.80;99.90;;;;;;5053078;28;20466;-91
2022/01/11 12:37:38;;;;;;;22.70;10.17;;;6.00;99.90;;;;;;5053262;28;20468;-90
2022/01/11 12:40:16;;;;;;;22.23;11.20;;;6.00;99.90;;;;;;5052999;28;20443;-88
2022/01/11 12:42:55;;;;;;;35.20;12.40;;;6.20;99.90;;;;;;5053479;28;20452;-90
2022/01/11 12:45:53;;;;;;;17.53;10.97;;;6.60;99.90;;;;;;5051117;28;21056;-89
2022/01/11 12:48:53;;;;;;;21.40;11.10;;;7.00;99.90;;;;;;5049788;28;20480;-89